Terminal Aerodrome Forecast
Issued by NWS Dallas/Fort Worth, TX

Home | Current Version | Previous Version | Text Only | Print | Product List | Glossary On
Versions: 1 2 3 4 5 6 7 8 9 10 11 12 13 14 15 16 17 18 19 20 21 22 23 24 25 26 27 28 29 30 31 32 33
000
FTUS44 KFWD 282320
TAFACT
TAF
KACT 282320Z 2900/2924 15010KT P6SM SCT050 BKN130
     FM290300 17012KT P6SM VCTS BKN025CB
      TEMPO 2904/2908 4SM TSRA BKN020CB
     FM291200 16009KT P6SM BKN015
     FM291900 16010KT P6SM OVC015 PROB30 2920/2924 5SM TSRA
      BKN025CB=

USA.gov is the U.S. government's official web portal to all federal, state and local government web resources and services.